Main page
METAR-TAF:

METAR-TAF

Airports :

Norwich Airport

Norwich, England

latitude: 52-38N, longitude: 001-18E, elevation: 14 m

Current weather observation

The report was made 10 minutes ago, at 13:20 UTC
Wind 11 kt from the South/Southeast, varying between East/Southeast and South
Temperature 18°C
Humidity 39%
Pressure 1014 hPa
Visibility 10 km or more
no clouds below 1500 m and no cumulonimbus

METAR: EGSH 051320Z 15011KT 110V190 CAVOK 18/04 Q1014 NOSIG

Time: 14:30 (13:30 UTC)

Forecast

The report was made 2 hours and 6 minutes ago, at 11:24 UTC
Forecast valid from 05 at 12 UTC to 05 at 21 UTC
Wind 13 kt from the South/Southeast
Visibility 10 km or more
no clouds below 1500 m and no cumulonimbus
Temporary
from 05 at 12 UTC to 05 at 21 UTC
Wind 16 kt from the South/Southeast with gusts up to 26 kt

TAF: EGSH 051124Z 0512/0521 15013KT CAVOK TEMPO 0512/0521 16016G26KT

Weather observations and forecasts of more than 4000 airports (METAR and TAF reports).

The available stations are represented by yellow and red dots on the map.

Hover mouse over dot to see the name of the station.

Then click to see weather observations and forecasts.

To change the map : click on the green buttons with a black cross to zoom in, on the green button with a dash to zoom out, or on the green arrows for adjacent maps.


METAR-TAF: